createdAt,value
2017-06-27T00:00:08.576Z,12.00
2017-06-27T00:02:37.259Z,12.00
2017-06-27T00:05:05.632Z,12.00
2017-06-27T00:07:34.079Z,11.90
2017-06-27T00:10:02.917Z,11.90
2017-06-27T00:12:31.265Z,11.90
2017-06-27T00:14:59.823Z,11.90
2017-06-27T00:17:29.803Z,11.90
2017-06-27T00:19:58.145Z,11.90
2017-06-27T00:22:26.519Z,11.90
2017-06-27T00:24:55.240Z,11.80
2017-06-27T00:27:24.610Z,11.80
2017-06-27T00:29:53.912Z,11.80
2017-06-27T00:32:22.570Z,11.70
2017-06-27T00:34:51.047Z,11.70
2017-06-27T00:37:19.394Z,11.70
2017-06-27T00:39:49.326Z,11.70
2017-06-27T00:42:17.675Z,11.70
2017-06-27T00:44:46.097Z,11.70
2017-06-27T00:47:14.811Z,11.70
2017-06-27T00:49:43.250Z,11.60
2017-06-27T00:52:12.355Z,11.60
2017-06-27T00:54:41.000Z,11.60
2017-06-27T00:57:09.469Z,11.60
2017-06-27T00:59:38.680Z,11.60
2017-06-27T01:02:07.212Z,11.60
2017-06-27T01:04:35.862Z,11.60
2017-06-27T01:07:04.278Z,11.50
2017-06-27T01:09:33.161Z,11.50
2017-06-27T01:12:02.481Z,11.50
2017-06-27T01:14:31.845Z,11.50
2017-06-27T01:17:01.300Z,11.50
2017-06-27T01:19:29.674Z,11.40
2017-06-27T01:21:58.053Z,11.40
2017-06-27T01:24:26.766Z,11.30
2017-06-27T01:26:55.165Z,11.30
2017-06-27T01:29:23.546Z,11.40
2017-06-27T01:31:52.044Z,11.40
2017-06-27T01:34:24.215Z,11.40
2017-06-27T01:36:52.579Z,11.40
2017-06-27T01:39:22.358Z,11.40
2017-06-27T01:41:52.665Z,11.40
2017-06-27T01:44:21.006Z,11.40
2017-06-27T01:46:49.812Z,11.40
2017-06-27T01:49:18.189Z,11.50
2017-06-27T01:51:47.303Z,11.50
2017-06-27T01:54:15.748Z,11.50
2017-06-27T01:56:44.867Z,11.60
2017-06-27T01:59:13.296Z,11.60
2017-06-27T02:01:42.102Z,11.60
2017-06-27T02:04:10.492Z,11.70
2017-06-27T02:06:39.594Z,11.70
2017-06-27T02:09:08.392Z,11.70
2017-06-27T02:11:36.819Z,11.80
2017-06-27T02:14:05.189Z,11.80
2017-06-27T02:16:34.675Z,11.90
2017-06-27T02:19:04.055Z,11.80
2017-06-27T02:21:32.450Z,11.90
2017-06-27T02:24:03.318Z,11.90
2017-06-27T02:26:31.747Z,11.90
2017-06-27T02:29:00.086Z,11.90
2017-06-27T02:31:29.132Z,11.90
2017-06-27T02:33:57.457Z,11.90
2017-06-27T02:36:25.832Z,11.90
2017-06-27T02:38:54.862Z,11.90
2017-06-27T02:41:23.196Z,11.90
2017-06-27T02:43:51.644Z,11.90
2017-06-27T02:46:20.073Z,11.90
2017-06-27T02:48:48.410Z,11.90
2017-06-27T02:51:16.772Z,11.80
2017-06-27T02:53:45.658Z,11.80
2017-06-27T02:56:13.996Z,11.70
2017-06-27T02:58:42.340Z,11.70
2017-06-27T03:01:11.270Z,11.70
2017-06-27T03:03:40.399Z,11.60
2017-06-27T03:06:08.747Z,11.60
2017-06-27T03:08:37.493Z,11.60
2017-06-27T03:11:05.846Z,11.50
2017-06-27T03:13:34.352Z,11.50
2017-06-27T03:16:03.110Z,11.50
2017-06-27T03:18:31.490Z,11.50
2017-06-27T03:20:59.846Z,11.50
2017-06-27T03:23:28.245Z,11.50
2017-06-27T03:25:56.739Z,11.50
2017-06-27T03:28:25.871Z,11.40
2017-06-27T03:30:56.334Z,11.40
2017-06-27T03:33:24.726Z,11.40
2017-06-27T03:35:53.121Z,11.40
2017-06-27T03:38:21.840Z,11.40
2017-06-27T03:40:51.151Z,11.40
2017-06-27T03:43:19.507Z,11.40
2017-06-27T03:45:48.334Z,11.50
2017-06-27T03:48:16.777Z,11.50
2017-06-27T03:50:45.199Z,11.60
2017-06-27T03:53:13.906Z,11.60
2017-06-27T03:55:42.322Z,11.60
2017-06-27T03:58:11.487Z,11.60
2017-06-27T04:00:41.113Z,11.60
2017-06-27T04:03:09.705Z,11.70
2017-06-27T04:05:38.205Z,11.80
2017-06-27T04:08:07.942Z,11.80
2017-06-27T04:10:36.399Z,11.80
2017-06-27T04:13:04.932Z,11.90
2017-06-27T04:15:33.460Z,12.00
2017-06-27T04:18:01.915Z,12.00
2017-06-27T04:20:30.308Z,12.10
2017-06-27T04:23:00.647Z,12.10
2017-06-27T04:25:28.989Z,12.10
2017-06-27T04:27:58.388Z,12.20
2017-06-27T04:30:27.230Z,12.20
2017-06-27T04:32:55.646Z,12.20
2017-06-27T04:35:23.990Z,12.20
2017-06-27T04:37:53.436Z,12.20
2017-06-27T04:40:21.797Z,12.20
2017-06-27T04:42:50.155Z,12.30
2017-06-27T04:45:18.855Z,12.30
2017-06-27T04:47:48.063Z,12.40
2017-06-27T04:50:16.411Z,12.40
2017-06-27T04:52:44.877Z,12.50
2017-06-27T04:55:13.531Z,12.60
2017-06-27T04:57:41.909Z,12.70
2017-06-27T05:00:10.739Z,12.70
2017-06-27T05:02:39.218Z,12.60
2017-06-27T05:05:07.743Z,12.70
2017-06-27T05:07:37.033Z,12.80
2017-06-27T05:10:05.540Z,12.70
2017-06-27T05:12:33.920Z,12.80
2017-06-27T05:15:02.675Z,12.80
2017-06-27T05:17:31.125Z,12.90
2017-06-27T05:19:59.474Z,13.00
2017-06-27T05:22:28.909Z,13.20
2017-06-27T05:24:57.288Z,13.10
2017-06-27T05:27:26.441Z,13.40
2017-06-27T05:29:55.135Z,13.40
2017-06-27T05:32:23.462Z,13.60
2017-06-27T05:34:51.837Z,13.70
2017-06-27T05:37:20.491Z,13.90
2017-06-27T05:39:48.874Z,13.90
2017-06-27T05:42:17.317Z,13.90
2017-06-27T05:44:45.869Z,13.90
2017-06-27T05:47:14.348Z,13.90
2017-06-27T05:49:43.691Z,14.10
2017-06-27T05:52:13.136Z,14.10
2017-06-27T05:54:41.685Z,14.10
2017-06-27T05:57:10.212Z,14.10
2017-06-27T05:59:40.031Z,14.20
2017-06-27T06:02:08.394Z,14.10
2017-06-27T06:04:36.921Z,14.20
2017-06-27T06:07:05.731Z,14.20
2017-06-27T06:09:34.112Z,14.30
2017-06-27T06:12:02.572Z,14.40
2017-06-27T06:14:31.754Z,14.50
2017-06-27T06:17:00.077Z,14.60
2017-06-27T06:19:28.423Z,14.70
2017-06-27T06:21:56.884Z,14.90
2017-06-27T06:24:25.237Z,15.00
2017-06-27T06:26:53.569Z,14.90
2017-06-27T06:29:23.489Z,14.80
2017-06-27T06:31:51.938Z,14.80
2017-06-27T06:34:21.031Z,14.70
2017-06-27T06:36:54.553Z,14.70
2017-06-27T06:39:22.882Z,14.50
2017-06-27T06:41:51.305Z,14.30
2017-06-27T06:44:20.224Z,14.40
2017-06-27T06:46:48.599Z,14.50
2017-06-27T06:49:18.956Z,14.50
2017-06-27T06:51:47.982Z,14.80
2017-06-27T06:54:16.350Z,15.20
2017-06-27T06:56:45.678Z,15.40
2017-06-27T06:59:14.235Z,15.40
2017-06-27T07:01:42.614Z,15.20
2017-06-27T07:04:11.107Z,15.00
2017-06-27T07:06:41.679Z,15.00
2017-06-27T07:09:10.052Z,15.00
2017-06-27T07:11:38.538Z,14.90
2017-06-27T07:14:09.150Z,14.60
2017-06-27T07:16:38.307Z,14.80
2017-06-27T07:19:06.731Z,14.80
2017-06-27T07:21:35.481Z,15.00
2017-06-27T07:24:04.087Z,15.40
2017-06-27T07:26:32.647Z,15.70
2017-06-27T07:29:02.380Z,15.60
2017-06-27T07:31:30.736Z,15.80
2017-06-27T07:33:59.152Z,15.80
2017-06-27T07:36:28.249Z,15.80
2017-06-27T07:39:02.848Z,16.00
2017-06-27T07:41:31.627Z,16.40
2017-06-27T07:44:00.157Z,16.60
2017-06-27T07:46:29.252Z,16.30
2017-06-27T07:48:57.991Z,16.30
2017-06-27T07:51:26.377Z,16.10
2017-06-27T07:53:55.921Z,16.20
2017-06-27T07:56:24.601Z,16.20
2017-06-27T07:58:53.950Z,16.30
2017-06-27T08:01:22.308Z,16.40
2017-06-27T08:03:51.220Z,16.10
2017-06-27T08:06:19.708Z,16.00
2017-06-27T08:08:48.079Z,16.30
2017-06-27T08:11:17.482Z,16.50
2017-06-27T08:13:46.573Z,16.30
2017-06-27T08:16:14.923Z,16.20
2017-06-27T08:18:44.365Z,16.20
2017-06-27T08:21:12.767Z,16.50
2017-06-27T08:23:42.162Z,16.80
2017-06-27T08:26:12.911Z,16.70
2017-06-27T08:28:42.283Z,16.70
2017-06-27T08:31:10.795Z,16.80
2017-06-27T08:33:41.085Z,16.70
2017-06-27T08:36:09.465Z,16.60
2017-06-27T08:38:37.946Z,16.80
2017-06-27T08:41:08.613Z,16.90
2017-06-27T08:43:37.655Z,17.00
2017-06-27T08:46:06.310Z,17.10
2017-06-27T08:48:35.014Z,17.00
2017-06-27T08:51:03.743Z,17.00
2017-06-27T08:53:32.189Z,17.00
2017-06-27T08:56:00.907Z,17.00
2017-06-27T08:58:29.254Z,17.10
2017-06-27T09:00:57.595Z,17.10
2017-06-27T09:03:27.740Z,17.30
2017-06-27T09:05:56.123Z,17.40
2017-06-27T09:08:26.638Z,17.50
2017-06-27T09:10:56.319Z,17.80
2017-06-27T09:13:24.662Z,17.80
2017-06-27T09:15:53.022Z,18.00
2017-06-27T09:18:21.430Z,18.30
2017-06-27T09:20:49.801Z,18.40
2017-06-27T09:23:18.260Z,18.20
2017-06-27T09:25:47.094Z,18.10
2017-06-27T09:28:15.439Z,18.00
2017-06-27T09:30:43.785Z,17.90
2017-06-27T09:33:12.842Z,18.10
2017-06-27T09:35:41.400Z,18.20
2017-06-27T09:38:09.885Z,18.40
2017-06-27T09:40:38.509Z,18.60
2017-06-27T09:43:07.744Z,18.70
2017-06-27T09:45:36.329Z,18.70
2017-06-27T09:48:05.993Z,18.90
2017-06-27T09:50:34.573Z,19.10
2017-06-27T09:53:03.289Z,19.20
2017-06-27T09:55:32.210Z,19.60
2017-06-27T09:58:01.781Z,20.30
2017-06-27T10:00:30.285Z,20.80
2017-06-27T10:02:59.061Z,21.20
2017-06-27T10:05:27.496Z,21.30
2017-06-27T10:07:55.823Z,20.50
2017-06-27T10:10:24.533Z,19.70
2017-06-27T10:12:52.889Z,18.70
2017-06-27T10:15:21.212Z,18.50
2017-06-27T10:17:49.961Z,18.50
2017-06-27T10:20:18.417Z,18.70
2017-06-27T10:22:47.045Z,18.70
2017-06-27T10:25:16.130Z,18.70
2017-06-27T10:27:45.320Z,18.40
2017-06-27T10:30:13.771Z,18.40
2017-06-27T10:32:42.563Z,17.90
2017-06-27T10:35:11.184Z,17.70
2017-06-27T10:37:39.710Z,18.00
2017-06-27T10:40:08.308Z,18.10
2017-06-27T10:42:36.717Z,18.10
2017-06-27T10:45:05.315Z,17.80
2017-06-27T10:47:35.080Z,18.20
2017-06-27T10:50:03.868Z,18.20
2017-06-27T10:52:32.313Z,18.10
2017-06-27T10:55:03.458Z,18.40
2017-06-27T10:57:31.892Z,18.40
2017-06-27T11:00:00.372Z,18.80
2017-06-27T11:02:30.134Z,18.90
2017-06-27T11:04:58.457Z,19.10
2017-06-27T11:07:26.832Z,19.90
2017-06-27T11:09:57.723Z,20.80
2017-06-27T11:12:26.050Z,21.80
2017-06-27T11:14:54.428Z,21.80
2017-06-27T11:17:23.319Z,21.20
2017-06-27T11:19:52.419Z,20.70
2017-06-27T11:22:20.888Z,20.70
2017-06-27T11:24:49.317Z,20.50
2017-06-27T11:27:17.698Z,20.40
2017-06-27T11:29:46.066Z,20.10
2017-06-27T11:32:15.064Z,19.90
2017-06-27T11:34:43.486Z,19.70
2017-06-27T11:37:11.895Z,19.70
2017-06-27T11:39:41.206Z,19.80
2017-06-27T11:42:09.743Z,19.80
2017-06-27T11:44:38.330Z,19.80
2017-06-27T11:47:07.193Z,19.70
2017-06-27T11:49:35.593Z,19.40
2017-06-27T11:52:05.111Z,19.50
2017-06-27T11:54:36.186Z,19.60
2017-06-27T11:57:05.125Z,19.70
2017-06-27T11:59:34.780Z,19.80
2017-06-27T12:02:10.105Z,19.80
2017-06-27T12:04:41.383Z,20.40
2017-06-27T12:07:32.376Z,21.20
2017-06-27T12:10:01.704Z,21.80
2017-06-27T12:12:31.149Z,21.80
2017-06-27T12:15:00.222Z,21.90
2017-06-27T12:17:28.645Z,22.40
2017-06-27T12:19:57.030Z,23.80
2017-06-27T12:22:26.694Z,24.00
2017-06-27T12:24:55.041Z,24.60
2017-06-27T12:27:23.406Z,25.60
2017-06-27T12:29:52.104Z,25.30
2017-06-27T12:32:20.566Z,26.20
2017-06-27T12:34:49.916Z,26.10
2017-06-27T12:37:18.518Z,27.00
2017-06-27T12:39:46.877Z,27.30
2017-06-27T12:42:15.247Z,27.40
2017-06-27T12:44:44.273Z,26.30
2017-06-27T12:47:13.311Z,25.80
2017-06-27T12:49:41.927Z,25.40
2017-06-27T12:52:11.763Z,24.70
2017-06-27T12:54:40.261Z,24.70
2017-06-27T12:57:09.466Z,25.50
2017-06-27T12:59:38.826Z,25.50
2017-06-27T13:02:08.152Z,25.40
2017-06-27T13:04:36.724Z,25.40
2017-06-27T13:07:05.561Z,25.90
2017-06-27T13:09:35.044Z,26.40
2017-06-27T13:12:03.575Z,26.40
2017-06-27T13:14:33.825Z,25.70
2017-06-27T13:17:02.309Z,25.20
2017-06-27T13:19:30.684Z,24.90
2017-06-27T13:21:59.549Z,25.30
2017-06-27T13:24:27.926Z,25.10
2017-06-27T13:26:56.361Z,24.30
2017-06-27T13:29:26.014Z,22.20
2017-06-27T13:31:54.339Z,22.20
2017-06-27T13:34:22.703Z,20.80
2017-06-27T13:36:51.395Z,20.40
2017-06-27T13:39:19.802Z,20.50
2017-06-27T13:41:48.128Z,21.60
2017-06-27T13:44:16.503Z,22.80
2017-06-27T13:46:44.910Z,23.90
2017-06-27T13:49:13.498Z,24.80
2017-06-27T13:51:42.063Z,24.70
2017-06-27T13:54:10.568Z,24.90
2017-06-27T13:56:41.155Z,25.20
2017-06-27T13:59:11.348Z,23.50
2017-06-27T14:01:39.822Z,22.30
2017-06-27T14:04:08.353Z,21.80
2017-06-27T14:06:37.334Z,21.50
2017-06-27T14:09:06.536Z,21.30
2017-06-27T14:11:35.121Z,21.30
2017-06-27T14:14:03.799Z,20.80
2017-06-27T14:16:32.395Z,20.20
2017-06-27T14:19:02.368Z,20.20
2017-06-27T14:21:30.916Z,20.20
2017-06-27T14:23:59.293Z,20.70
2017-06-27T14:26:27.666Z,21.10
2017-06-27T14:28:56.830Z,21.10
2017-06-27T14:31:25.235Z,21.50
2017-06-27T14:33:53.575Z,22.20
2017-06-27T14:36:22.409Z,23.00
2017-06-27T14:38:50.766Z,23.20
2017-06-27T14:41:19.207Z,22.50
2017-06-27T14:43:47.758Z,22.00
2017-06-27T14:46:16.087Z,21.20
2017-06-27T14:48:44.486Z,21.80
2017-06-27T14:51:12.918Z,22.60
2017-06-27T14:53:41.582Z,23.20
2017-06-27T14:56:10.052Z,23.40
2017-06-27T14:58:39.632Z,23.80
2017-06-27T15:01:08.075Z,23.20
2017-06-27T15:03:37.285Z,23.00
2017-06-27T15:06:07.490Z,23.00
2017-06-27T15:08:36.000Z,22.60
2017-06-27T15:11:04.718Z,22.10
2017-06-27T15:13:33.685Z,21.90
2017-06-27T15:16:02.404Z,22.30
2017-06-27T15:18:30.947Z,22.20
2017-06-27T15:20:59.892Z,22.20
2017-06-27T15:23:28.260Z,22.50
2017-06-27T15:25:56.686Z,22.80
2017-06-27T15:28:25.675Z,22.60
2017-06-27T15:30:54.100Z,22.90
2017-06-27T15:33:22.452Z,22.80
2017-06-27T15:35:51.932Z,22.90
2017-06-27T15:38:20.262Z,22.50
2017-06-27T15:40:48.654Z,22.70
2017-06-27T15:43:17.759Z,23.00
2017-06-27T15:45:46.212Z,22.70
2017-06-27T15:48:14.596Z,22.80
2017-06-27T15:50:45.179Z,22.70
2017-06-27T15:53:13.689Z,23.20
2017-06-27T15:55:42.182Z,23.00
2017-06-27T15:58:11.149Z,23.10
2017-06-27T16:00:40.537Z,22.40
2017-06-27T16:03:09.580Z,22.40
2017-06-27T16:05:39.188Z,22.80
2017-06-27T16:08:08.456Z,23.60
2017-06-27T16:10:37.185Z,23.40
2017-06-27T16:13:06.217Z,23.00
2017-06-27T16:15:34.716Z,23.30
2017-06-27T16:18:03.354Z,23.00
2017-06-27T16:20:32.097Z,23.00
2017-06-27T16:23:00.487Z,22.40
2017-06-27T16:25:28.953Z,22.10
2017-06-27T16:27:57.937Z,22.30
2017-06-27T16:30:26.510Z,22.10
2017-06-27T16:32:55.027Z,21.90
2017-06-27T16:35:23.792Z,21.40
2017-06-27T16:37:52.124Z,21.10
2017-06-27T16:40:20.527Z,21.20
2017-06-27T16:42:50.270Z,21.00
2017-06-27T16:45:18.699Z,21.10
2017-06-27T16:47:47.146Z,20.80
2017-06-27T16:50:15.917Z,20.70
2017-06-27T16:52:44.393Z,20.40
2017-06-27T16:55:13.787Z,20.20
2017-06-27T16:57:42.837Z,20.20
2017-06-27T17:00:11.337Z,20.30
2017-06-27T17:02:40.281Z,20.30
2017-06-27T17:05:09.028Z,19.90
2017-06-27T17:07:37.640Z,20.00
2017-06-27T17:10:06.301Z,19.80
2017-06-27T17:12:35.390Z,20.10
2017-06-27T17:15:03.972Z,19.90
2017-06-27T17:17:32.480Z,19.70
2017-06-27T17:20:01.583Z,19.70
2017-06-27T17:22:30.198Z,19.70
2017-06-27T17:24:58.587Z,19.70
2017-06-27T17:27:27.385Z,19.40
2017-06-27T17:29:55.952Z,19.40
2017-06-27T17:32:24.418Z,19.40
2017-06-27T17:34:52.928Z,19.20
2017-06-27T17:37:21.515Z,19.20
2017-06-27T17:39:49.847Z,19.10
2017-06-27T17:42:19.295Z,18.90
2017-06-27T17:44:47.708Z,18.80
2017-06-27T17:47:16.900Z,19.20
2017-06-27T17:49:45.881Z,19.20
2017-06-27T17:52:14.376Z,19.30
2017-06-27T17:54:43.579Z,19.50
2017-06-27T17:57:12.345Z,19.50
2017-06-27T17:59:41.169Z,19.20
2017-06-27T18:02:09.947Z,18.80
2017-06-27T18:04:39.466Z,18.40
2017-06-27T18:07:08.761Z,18.30
2017-06-27T18:09:37.698Z,17.80
2017-06-27T18:12:09.393Z,17.60
2017-06-27T18:14:38.105Z,17.50
2017-06-27T18:17:06.948Z,17.50
2017-06-27T18:19:36.835Z,17.40
2017-06-27T18:22:05.524Z,17.40
2017-06-27T18:24:34.241Z,17.30
2017-06-27T18:27:03.503Z,17.40
2017-06-27T18:29:31.983Z,17.40
2017-06-27T18:32:00.665Z,17.30
2017-06-27T18:34:29.514Z,17.10
2017-06-27T18:36:58.144Z,17.00
2017-06-27T18:39:26.653Z,16.90
2017-06-27T18:41:56.679Z,16.80
2017-06-27T18:44:25.170Z,16.80
2017-06-27T18:46:53.638Z,16.90
2017-06-27T18:49:22.344Z,16.70
2017-06-27T18:51:51.521Z,16.70
2017-06-27T18:54:19.965Z,16.70
2017-06-27T18:56:49.103Z,16.70
2017-06-27T18:59:17.561Z,16.60
2017-06-27T19:01:46.987Z,16.60
2017-06-27T19:04:16.135Z,16.50
2017-06-27T19:06:45.100Z,16.30
2017-06-27T19:09:13.714Z,16.20
2017-06-27T19:11:42.891Z,16.30
2017-06-27T19:14:12.585Z,16.30
2017-06-27T19:16:42.890Z,16.20
2017-06-27T19:19:11.811Z,16.20
2017-06-27T19:21:40.637Z,16.10
2017-06-27T19:24:11.125Z,16.20
2017-06-27T19:26:40.986Z,16.10
2017-06-27T19:29:09.591Z,16.00
2017-06-27T19:31:38.305Z,16.10
2017-06-27T19:34:07.474Z,16.00
2017-06-27T19:36:36.452Z,16.00
2017-06-27T19:39:06.066Z,16.00
2017-06-27T19:41:36.436Z,16.00
2017-06-27T19:44:05.234Z,15.90
2017-06-27T19:46:35.380Z,16.00
2017-06-27T19:49:04.378Z,16.10
2017-06-27T19:51:33.237Z,16.00
2017-06-27T19:54:02.745Z,15.90
2017-06-27T19:56:32.573Z,15.90
2017-06-27T19:59:01.631Z,15.90
2017-06-27T20:01:30.993Z,15.90
2017-06-27T20:04:00.641Z,15.90
2017-06-27T20:06:29.979Z,16.00
2017-06-27T20:08:58.411Z,16.00
2017-06-27T20:11:27.203Z,15.90
2017-06-27T20:13:56.411Z,15.80
2017-06-27T20:16:25.050Z,15.70
2017-06-27T20:18:54.384Z,15.70
2017-06-27T20:21:22.818Z,15.70
2017-06-27T20:23:51.299Z,15.80
2017-06-27T20:26:19.933Z,15.90
2017-06-27T20:28:48.275Z,15.70
2017-06-27T20:31:17.054Z,15.80
2017-06-27T20:33:45.847Z,15.70
2017-06-27T20:36:14.496Z,15.60
2017-06-27T20:38:44.101Z,15.60
2017-06-27T20:41:13.753Z,15.60
2017-06-27T20:43:42.288Z,15.50
2017-06-27T20:46:10.868Z,15.60
2017-06-27T20:48:40.463Z,15.40
2017-06-27T20:51:09.062Z,15.40
2017-06-27T20:53:38.368Z,15.30
2017-06-27T20:56:07.530Z,15.20
2017-06-27T20:58:36.319Z,15.30
2017-06-27T21:01:05.009Z,15.30
2017-06-27T21:03:33.912Z,15.20
2017-06-27T21:06:03.022Z,15.20
2017-06-27T21:08:31.680Z,15.20
2017-06-27T21:11:00.221Z,15.20
2017-06-27T21:13:28.726Z,15.10
2017-06-27T21:15:57.148Z,15.20
2017-06-27T21:18:26.569Z,15.20
2017-06-27T21:20:54.917Z,15.20
2017-06-27T21:23:23.287Z,15.20
2017-06-27T21:25:52.040Z,15.20
2017-06-27T21:28:20.464Z,15.20
2017-06-27T21:30:48.901Z,15.10
2017-06-27T21:33:18.968Z,15.20
2017-06-27T21:35:47.863Z,15.20
2017-06-27T21:38:17.002Z,15.10
2017-06-27T21:40:46.128Z,15.20
2017-06-27T21:43:16.626Z,15.10
2017-06-27T21:45:47.009Z,15.00
2017-06-27T21:48:15.657Z,15.00
2017-06-27T21:50:45.318Z,15.00
2017-06-27T21:53:15.629Z,15.10
2017-06-27T21:55:46.198Z,15.10
2017-06-27T21:58:15.404Z,15.10
2017-06-27T22:00:44.786Z,15.00
2017-06-27T22:03:14.867Z,15.20
2017-06-27T22:05:45.338Z,15.20
2017-06-27T22:08:14.201Z,15.20
2017-06-27T22:10:43.948Z,15.20
2017-06-27T22:13:13.496Z,15.20
2017-06-27T22:15:42.177Z,15.20
2017-06-27T22:18:11.057Z,15.10
2017-06-27T22:20:39.639Z,15.10
2017-06-27T22:23:09.165Z,15.00
2017-06-27T22:25:37.704Z,15.00
2017-06-27T22:28:07.206Z,15.00
2017-06-27T22:30:35.978Z,15.00
2017-06-27T22:33:04.377Z,15.00
2017-06-27T22:35:33.166Z,15.00
2017-06-27T22:38:03.383Z,14.90
2017-06-27T22:40:33.119Z,14.90
2017-06-27T22:43:01.602Z,14.90
2017-06-27T22:45:30.018Z,14.80
2017-06-27T22:48:00.482Z,14.90
2017-06-27T22:50:28.851Z,14.80
2017-06-27T22:52:57.349Z,14.90
2017-06-27T22:55:25.722Z,14.80
2017-06-27T22:57:54.076Z,14.80
2017-06-27T23:00:22.829Z,14.90
2017-06-27T23:02:52.217Z,14.90
2017-06-27T23:05:20.828Z,14.90
2017-06-27T23:07:49.289Z,14.90
2017-06-27T23:10:17.609Z,14.90
2017-06-27T23:12:45.996Z,14.90
2017-06-27T23:15:15.605Z,14.90
2017-06-27T23:17:44.205Z,14.90
2017-06-27T23:20:12.844Z,15.00
2017-06-27T23:22:43.003Z,15.00
2017-06-27T23:25:11.626Z,14.90
2017-06-27T23:27:40.800Z,15.00
2017-06-27T23:30:11.111Z,15.00
2017-06-27T23:32:39.681Z,14.90
2017-06-27T23:35:08.295Z,15.00
2017-06-27T23:37:37.411Z,15.00
2017-06-27T23:40:06.191Z,14.90
2017-06-27T23:42:35.681Z,15.00
2017-06-27T23:45:05.425Z,15.00
2017-06-27T23:47:34.789Z,15.00
2017-06-27T23:50:03.206Z,15.00
2017-06-27T23:52:33.918Z,15.00
2017-06-27T23:55:02.437Z,15.10
2017-06-27T23:57:31.917Z,15.10
